Time;durP1;ratioP1;P1;durP2;ratioP2;P2;SDS_P1;SDS_P2;PMS_P1;PMS_P2;Temp;Humidity;BMP_temperature;BMP_pressure;BME280_temperature;BME280_humidity;BME280_pressure;Samples;Min_cycle;Max_cycle;Signal;HPM_P1;HPM_P2
2023/07/04 00:04:29;;;;;;;4.03;2.25;;;;;;;16.24;58.38;99552.31;10502732;28;20095;-72
2023/07/04 00:09:31;;;;;;;5.45;2.20;;;;;;;16.22;58.02;99545.44;10502226;28;20044;-72
2023/07/04 00:14:33;;;;;;;5.32;2.30;;;;;;;16.21;58.23;99549.88;10500812;28;20044;-72
2023/07/04 00:19:35;;;;;;;6.00;2.10;;;;;;;16.20;58.29;99542.00;10482566;28;20549;-72
2023/07/04 00:24:37;;;;;;;3.35;2.13;;;;;;;16.19;58.65;99545.59;10501095;28;20561;-73
2023/07/04 00:29:40;;;;;;;6.47;2.30;;;;;;;16.13;58.82;99541.53;10500782;28;20037;-73
2023/07/04 00:34:45;;;;;;;2.97;1.85;;;;;;;16.15;58.93;99551.09;10506545;28;20067;-71
2023/07/04 00:39:48;;;;;;;3.85;1.92;;;;;;;16.19;59.25;99545.59;10542902;28;20040;-72
2023/07/04 00:44:55;;;;;;;3.45;1.60;;;;;;;16.18;59.08;99546.56;10543367;28;20047;-73
2023/07/04 00:49:57;;;;;;;3.10;2.33;;;;;;;16.11;59.15;99539.00;10543597;28;20040;-74
2023/07/04 00:55:07;;;;;;;3.15;1.77;;;;;;;16.26;58.74;99544.28;10524438;28;20135;-73
2023/07/04 01:05:30;;;;;;;4.43;2.40;;;;;;;16.31;58.93;99543.03;10540838;28;20066;-72
2023/07/04 01:10:36;;;;;;;6.45;2.42;;;;;;;16.46;58.61;99546.50;10524033;28;20476;-73
2023/07/04 01:15:38;;;;;;;2.73;1.77;;;;;;;16.37;58.78;99539.97;10541943;28;20111;-72
2023/07/04 01:20:39;;;;;;;3.65;2.35;;;;;;;16.44;58.94;99537.81;10542122;28;20376;-72
2023/07/04 01:25:55;;;;;;;2.95;1.95;;;;;;;16.50;58.50;99537.41;10523688;28;20094;-73
2023/07/04 01:30:57;;;;;;;3.00;1.85;;;;;;;16.44;58.74;99543.13;10523518;28;20064;-73
2023/07/04 01:35:59;;;;;;;3.42;1.80;;;;;;;16.40;59.53;99538.94;10540703;28;20044;-73
2023/07/04 01:41:01;;;;;;;2.97;2.03;;;;;;;16.37;59.32;99541.78;10526035;28;20072;-73
2023/07/04 01:46:03;;;;;;;2.88;1.73;;;;;;;16.37;59.63;99544.44;10549518;28;20071;-73
2023/07/04 01:51:04;;;;;;;2.55;1.77;;;;;;;16.42;59.91;99544.16;10531452;28;20036;-73
2023/07/04 01:56:06;;;;;;;2.45;1.70;;;;;;;16.51;59.70;99539.13;10530640;28;20139;-73
2023/07/04 02:01:08;;;;;;;2.92;2.13;;;;;;;16.48;60.07;99541.13;10530340;28;20121;-73
2023/07/04 02:06:10;;;;;;;3.17;2.30;;;;;;;16.50;60.48;99540.06;10546558;28;20044;-72
2023/07/04 02:11:12;;;;;;;3.15;2.15;;;;;;;16.48;61.03;99533.16;10528952;28;20075;-73
2023/07/04 02:16:14;;;;;;;2.45;1.50;;;;;;;16.52;61.47;99535.53;10528352;28;20123;-73
2023/07/04 02:21:18;;;;;;;1.77;1.40;;;;;;;16.47;61.90;99532.31;10528691;28;20127;-73
2023/07/04 02:26:21;;;;;;;2.70;1.60;;;;;;;16.47;62.01;99537.63;10547085;28;20122;-73
2023/07/04 02:31:24;;;;;;;2.85;2.08;;;;;;;16.54;62.02;99527.44;10546322;28;20036;-73
2023/07/04 02:36:26;;;;;;;2.42;1.67;;;;;;;16.46;62.53;99527.09;10527402;28;20066;-73
2023/07/04 02:41:29;;;;;;;3.30;1.77;;;;;;;16.32;63.56;99528.81;10510626;28;20087;-73
2023/07/04 02:46:33;;;;;;;2.47;1.63;;;;;;;16.37;63.62;99528.53;10527275;28;20071;-73
2023/07/04 02:51:39;;;;;;;1.67;1.40;;;;;;;16.32;64.19;99520.88;10526885;28;20064;-73
2023/07/04 02:56:40;;;;;;;2.08;1.63;;;;;;;16.39;64.24;99526.66;10526997;28;20044;-73
2023/07/04 03:01:42;;;;;;;2.15;1.48;;;;;;;16.51;63.79;99514.38;10526019;28;20036;-73
2023/07/04 03:06:44;;;;;;;5.28;1.70;;;;;;;16.71;63.04;99524.56;10526229;28;20048;-72
2023/07/04 03:11:47;;;;;;;1.98;1.30;;;;;;;16.77;62.97;99532.16;10525858;28;20040;-73
2023/07/04 03:16:49;;;;;;;3.40;1.30;;;;;;;16.89;62.72;99543.78;10525832;28;20093;-73
2023/07/04 03:21:51;;;;;;;2.97;1.30;;;;;;;16.90;62.67;99546.31;10525927;28;20040;-73
2023/07/04 03:26:54;;;;;;;2.17;1.45;;;;;;;17.01;62.25;99545.63;10525411;28;20508;-73
2023/07/04 03:31:55;;;;;;;3.78;1.42;;;;;;;16.88;63.19;99552.69;10543784;28;20090;-73
2023/07/04 03:37:00;;;;;;;2.03;1.45;;;;;;;16.94;63.48;99552.28;10525047;28;20480;-73
2023/07/04 03:42:03;;;;;;;3.30;1.30;;;;;;;17.04;63.64;99555.19;10524854;28;20094;-73
2023/07/04 03:47:05;;;;;;;1.55;1.33;;;;;;;16.92;64.43;99556.84;10525085;28;20051;-73
2023/07/04 03:52:07;;;;;;;2.28;1.50;;;;;;;17.13;64.45;99557.22;10524672;28;20043;-73
2023/07/04 03:57:09;;;;;;;2.72;1.70;;;;;;;17.25;64.57;99563.53;10524715;28;20424;-72
2023/07/04 04:02:11;;;;;;;3.05;1.50;;;;;;;17.18;65.44;99565.75;10542651;28;20028;-73
2023/07/04 04:07:13;;;;;;;2.28;1.45;;;;;;;17.17;66.69;99574.66;10541764;28;20128;-73
2023/07/04 04:12:15;;;;;;;1.80;1.30;;;;;;;17.39;66.09;99566.09;10524298;28;20516;-73
2023/07/04 04:17:17;;;;;;;2.30;1.40;;;;;;;17.43;66.79;99578.22;10542569;28;20098;-73
2023/07/04 04:22:18;;;;;;;4.72;1.77;;;;;;;17.56;67.31;99578.25;10541982;28;20113;-73
2023/07/04 04:27:20;;;;;;;2.95;1.40;;;;;;;17.80;66.61;99586.41;10542232;28;20048;-72
2023/07/04 04:32:22;;;;;;;3.28;1.70;;;;;;;17.82;67.43;99588.00;10542364;28;20067;-72
2023/07/04 04:37:24;;;;;;;3.20;1.90;;;;;;;18.01;66.68;99589.38;10541279;28;20040;-72
2023/07/04 04:42:32;;;;;;;2.50;1.90;;;;;;;18.06;66.83;99596.09;10542306;28;20036;-72
2023/07/04 04:47:33;;;;;;;3.03;1.95;;;;;;;18.19;66.61;99597.88;10542881;28;20040;-72
2023/07/04 04:52:37;;;;;;;2.72;2.15;;;;;;;18.25;66.53;99606.31;10542300;28;20516;-72
2023/07/04 04:57:38;;;;;;;3.03;2.50;;;;;;;18.35;66.47;99610.00;10523358;28;20107;-72
2023/07/04 05:02:40;;;;;;;3.85;2.08;;;;;;;18.56;65.60;99607.63;10541145;28;20499;-72
2023/07/04 05:07:42;;;;;;;2.88;2.10;;;;;;;18.51;67.23;99615.09;10541382;28;20458;-72
2023/07/04 05:12:44;;;;;;;2.90;1.98;;;;;;;18.76;65.53;99626.66;10542020;28;20495;-72
2023/07/04 05:17:45;;;;;;;3.00;2.35;;;;;;;18.79;65.60;99627.31;10529018;28;20048;-72
2023/07/04 05:22:47;;;;;;;3.05;2.65;;;;;;;19.04;64.52;99629.06;10549360;28;20044;-72
2023/07/04 05:27:50;;;;;;;3.95;2.65;;;;;;;19.27;64.42;99629.16;10549138;28;20421;-72
2023/07/04 05:32:52;;;;;;;4.10;2.80;;;;;;;19.44;63.41;99638.56;10531197;28;20458;-72
2023/07/04 05:37:54;;;;;;;2.92;2.30;;;;;;;19.49;63.46;99629.25;10568223;22;20032;-85
2023/07/04 05:42:56;;;;;;;3.53;2.75;;;;;;;19.67;62.46;99639.53;10546406;28;20051;-84
2023/07/04 05:47:57;;;;;;;3.05;2.20;;;;;;;20.06;61.01;99647.16;10560582;28;20074;-85
2023/07/04 05:52:59;;;;;;;5.18;2.75;;;;;;;20.33;59.75;99654.84;10542230;28;20444;-85
2023/07/04 05:58:01;;;;;;;4.78;2.95;;;;;;;20.37;57.88;99656.31;10603697;28;20039;-84
2023/07/04 06:03:03;;;;;;;3.63;2.55;;;;;;;20.56;57.73;99653.06;10602246;28;20089;-83
2023/07/04 06:08:06;;;;;;;5.80;3.10;;;;;;;20.77;57.73;99647.84;10600003;28;20097;-83
2023/07/04 06:13:07;;;;;;;3.97;3.00;;;;;;;20.95;57.05;99656.19;10582116;28;20066;-85
2023/07/04 06:18:09;;;;;;;4.55;2.88;;;;;;;21.30;55.69;99668.50;10584637;28;20048;-84
2023/07/04 06:23:11;;;;;;;4.45;2.38;;;;;;;21.07;58.52;99662.34;10586146;28;20048;-83
2023/07/04 06:28:13;;;;;;;4.55;2.75;;;;;;;21.10;58.22;99664.78;10566144;28;20052;-83
2023/07/04 06:33:14;;;;;;;19.42;4.07;;;;;;;21.10;55.47;99670.13;10582018;28;20500;-85
2023/07/04 06:38:16;;;;;;;4.45;3.10;;;;;;;21.10;55.98;99673.63;10586040;28;20082;-86
2023/07/04 06:43:18;;;;;;;4.28;3.38;;;;;;;20.88;55.22;99676.34;10603483;28;20115;-83
2023/07/04 06:48:21;;;;;;;5.88;3.17;;;;;;;20.86;56.27;99681.81;10607011;28;20099;-83
2023/07/04 06:53:23;;;;;;;4.13;3.40;;;;;;;20.90;55.24;99679.75;10591548;28;20043;-84
2023/07/04 06:58:25;;;;;;;5.30;3.35;;;;;;;21.12;54.48;99682.41;10582001;28;20109;-84
2023/07/04 07:03:27;;;;;;;5.55;3.38;;;;;;;21.86;51.18;99674.50;10600651;28;20114;-83
2023/07/04 07:08:29;;;;;;;4.97;2.83;;;;;;;21.83;52.04;99689.97;10588363;28;20044;-85
2023/07/04 07:13:30;;;;;;;3.20;2.85;;;;;;;22.01;50.29;99688.44;10592784;28;20048;-85
2023/07/04 07:18:34;;;;;;;3.67;2.67;;;;;;;21.54;48.49;99695.91;10591621;28;20089;-84
2023/07/04 07:23:37;;;;;;;5.95;2.83;;;;;;;21.83;47.54;99698.00;10603063;28;20443;-84
2023/07/04 07:28:39;;;;;;;7.13;2.60;;;;;;;21.80;47.14;99699.09;10574025;28;20046;-84
2023/07/04 07:33:48;;;;;;;4.18;2.88;;;;;;;22.12;48.78;99692.88;10595741;28;20039;-82
2023/07/04 07:38:52;;;;;;;6.38;2.83;;;;;;;21.95;46.17;99694.28;10596593;28;20051;-82
2023/07/04 07:43:53;;;;;;;5.55;2.67;;;;;;;21.95;45.65;99699.63;10596669;28;20044;-83
2023/07/04 07:48:56;;;;;;;4.63;2.60;;;;;;;22.24;45.06;99697.19;10606157;28;20070;-85
2023/07/04 07:53:59;;;;;;;4.18;2.97;;;;;;;22.09;44.12;99709.16;10579067;28;20070;-86
2023/07/04 07:59:01;;;;;;;3.53;2.30;;;;;;;22.09;45.28;99702.00;10563334;28;20051;-85
2023/07/04 08:04:04;;;;;;;3.88;2.53;;;;;;;21.98;45.40;99685.16;10598567;28;20031;-85
2023/07/04 08:09:10;;;;;;;5.38;3.22;;;;;;;22.30;45.53;99703.84;10598188;28;20047;-83
2023/07/04 08:14:13;;;;;;;6.65;2.70;;;;;;;22.48;46.36;99702.25;10564137;28;20093;-83
2023/07/04 08:19:18;;;;;;;7.13;3.30;;;;;;;23.05;44.22;99694.63;10598216;28;20488;-85
2023/07/04 08:24:20;;;;;;;5.03;2.38;;;;;;;23.22;44.06;99710.06;10580777;28;20048;-85
2023/07/04 08:29:21;;;;;;;4.00;2.35;;;;;;;23.53;42.00;99705.47;10584164;28;20139;-86
2023/07/04 08:34:23;;;;;;;4.90;3.22;;;;;;;23.03;42.70;99712.69;10596934;28;20039;-84
2023/07/04 08:39:25;;;;;;;5.05;2.58;;;;;;;22.94;42.11;99708.16;10600702;28;20047;-84
2023/07/04 08:44:56;;;;;;;4.65;2.75;;;;;;;23.10;41.61;99703.13;10589374;28;20051;-85
2023/07/04 08:50:08;;;;;;;3.22;2.47;;;;;;;23.39;41.33;99695.16;10562963;28;20071;-86
2023/07/04 08:55:12;;;;;;;3.88;2.88;;;;;;;23.81;40.60;99703.81;10579277;28;20572;-86
2023/07/04 09:00:20;;;;;;;4.20;2.20;;;;;;;23.83;41.87;99709.06;10563965;28;20074;-86
2023/07/04 09:05:48;;;;;;;4.18;2.78;;;;;;;23.44;41.71;99706.31;10563059;28;20504;-85
2023/07/04 09:10:56;;;;;;;4.47;2.60;;;;;;;23.85;40.96;99709.75;10579339;28;20048;-85
2023/07/04 09:16:05;;;;;;;3.47;2.47;;;;;;;24.30;40.66;99725.25;10579410;28;20051;-85
2023/07/04 09:21:15;;;;;;;3.65;2.80;;;;;;;24.26;38.94;99713.97;10562288;28;20073;-84
2023/07/04 09:26:21;;;;;;;5.22;2.72;;;;;;;24.64;40.60;99717.56;10563541;28;20043;-84
2023/07/04 09:31:29;;;;;;;3.72;2.80;;;;;;;24.89;39.61;99710.69;10617315;28;20036;-83
2023/07/04 09:36:35;;;;;;;3.72;2.72;;;;;;;25.00;37.48;99717.69;10580355;28;20058;-84
2023/07/04 09:41:40;;;;;;;4.32;2.72;;;;;;;24.60;38.33;99717.00;10591736;28;20043;-85
2023/07/04 09:47:01;;;;;;;3.47;2.83;;;;;;;24.70;38.22;99716.97;10597634;28;20051;-84
2023/07/04 09:52:21;;;;;;;3.45;2.55;;;;;;;25.35;37.99;99715.13;10596837;28;20051;-84
2023/07/04 09:57:27;;;;;;;4.40;3.90;;;;;;;25.12;38.08;99722.78;10595442;28;20067;-85
2023/07/04 10:02:34;;;;;;;3.93;3.07;;;;;;;25.45;37.47;99714.22;10568599;28;20044;-84
2023/07/04 10:07:37;;;;;;;3.85;3.45;;;;;;;25.59;36.94;99706.47;10592804;28;20118;-83
2023/07/04 10:12:45;;;;;;;4.10;3.70;;;;;;;25.54;36.72;99711.44;10603689;28;20065;-84
2023/07/04 10:17:46;;;;;;;6.53;5.40;;;;;;;25.74;35.50;99711.31;10583227;28;20118;-85
2023/07/04 10:22:52;;;;;;;6.65;6.15;;;;;;;26.01;35.36;99708.56;10582592;28;20071;-85
2023/07/04 10:28:01;;;;;;;7.30;5.72;;;;;;;25.80;35.35;99700.81;10564831;28;20048;-85
2023/07/04 10:33:12;;;;;;;5.75;5.22;;;;;;;26.20;35.52;99694.06;10583004;28;20071;-85
2023/07/04 10:38:41;;;;;;;5.40;5.00;;;;;;;26.82;36.32;99688.56;10600977;28;20053;-84
2023/07/04 10:43:51;;;;;;;6.10;5.50;;;;;;;26.67;36.14;99689.19;10581788;28;20110;-83
2023/07/04 10:49:01;;;;;;;8.05;6.32;;;;;;;26.56;34.13;99685.91;10579024;28;20047;-85
2023/07/04 10:54:07;;;;;;;6.43;5.85;;;;;;;26.17;35.16;99681.78;10580051;28;20055;-85
2023/07/04 10:59:19;;;;;;;8.00;7.32;;;;;;;26.12;33.43;99689.47;10601173;28;20047;-86
2023/07/04 11:04:26;;;;;;;7.60;7.00;;;;;;;26.56;34.68;99692.16;10584716;28;20043;-85
2023/07/04 11:09:33;;;;;;;8.05;6.68;;;;;;;27.05;35.06;99680.72;10590158;28;20117;-85
2023/07/04 11:14:41;;;;;;;7.47;6.80;;;;;;;26.34;34.13;99679.16;10564702;28;20067;-84
2023/07/04 11:19:54;;;;;;;7.97;7.28;;;;;;;26.61;36.80;99673.66;10611694;27;20053;-84
2023/07/04 11:25:18;;;;;;;7.32;6.63;;;;;;;26.67;33.61;99680.25;10631683;27;20543;-82
2023/07/04 11:30:34;;;;;;;8.98;8.32;;;;;;;27.04;31.29;99679.88;10629118;27;20055;-85
2023/07/04 11:35:36;;;;;;;9.57;8.77;;;;;;;27.14;32.51;99683.34;10647772;22;20086;-83
2023/07/04 11:40:45;;;;;;;10.25;9.57;;;;;;;27.45;31.38;99687.28;10586559;28;20047;-84
2023/07/04 11:45:48;;;;;;;12.20;11.20;;;;;;;26.63;31.25;99678.88;10590261;28;20134;-84
2023/07/04 11:50:58;;;;;;;10.48;9.77;;;;;;;25.87;34.70;99668.75;10605793;28;20036;-83
2023/07/04 11:56:19;;;;;;;11.15;10.15;;;;;;;26.86;32.85;99668.38;10603118;28;20054;-84
2023/07/04 12:01:21;;;;;;;11.63;10.85;;;;;;;27.51;31.57;99662.34;10608463;28;20039;-85
2023/07/04 12:06:47;;;;;;;13.80;12.90;;;;;;;26.35;30.55;99659.31;10594138;28;20051;-84
2023/07/04 12:11:49;;;;;;;14.15;13.18;;;;;;;27.08;32.61;99658.84;10591700;28;20443;-84
2023/07/04 12:16:57;;;;;;;16.25;14.88;;;;;;;26.97;30.91;99649.19;10591660;28;20125;-83
2023/07/04 12:21:59;;;;;;;14.23;13.13;;;;;;;27.07;30.72;99657.16;10587813;28;20036;-83
2023/07/04 12:27:01;;;;;;;13.00;12.07;;;;;;;27.20;32.97;99649.47;10569783;28;20075;-84
2023/07/04 12:32:12;;;;;;;12.00;11.20;;;;;;;27.08;32.11;99656.97;10569800;28;20090;-84
2023/07/04 12:37:16;;;;;;;11.93;10.82;;;;;;;27.44;31.97;99651.34;10607171;28;20047;-85
2023/07/04 12:42:27;;;;;;;13.10;12.05;;;;;;;26.82;31.94;99651.66;10592551;28;20466;-85
2023/07/04 12:47:38;;;;;;;13.10;12.20;;;;;;;26.67;32.22;99661.38;10597157;28;20058;-84
2023/07/04 12:52:41;;;;;;;13.98;13.05;;;;;;;26.35;32.49;99656.63;10591679;28;20039;-84
2023/07/04 12:57:43;;;;;;;16.08;14.77;;;;;;;26.02;34.30;99648.31;10575069;28;20053;-85
2023/07/04 13:02:50;;;;;;;16.30;15.23;;;;;;;26.07;32.40;99661.31;10608546;28;20484;-84
2023/07/04 13:07:52;;;;;;;15.27;14.07;;;;;;;26.72;31.26;99655.50;10554008;28;20143;-84
2023/07/04 13:12:54;;;;;;;15.93;14.82;;;;;;;26.54;31.17;99660.97;10585230;28;20047;-84
2023/07/04 13:18:04;;;;;;;14.82;13.82;;;;;;;25.62;34.18;99656.88;10584757;28;20074;-83
2023/07/04 13:23:24;;;;;;;15.48;14.18;;;;;;;26.03;33.10;99655.41;10583459;28;20055;-85
2023/07/04 13:28:38;;;;;;;15.65;14.52;;;;;;;26.38;31.24;99659.81;10585701;28;20093;-83
2023/07/04 13:33:43;;;;;;;15.00;14.00;;;;;;;25.88;31.79;99651.56;10592071;28;20047;-84
2023/07/04 13:38:47;;;;;;;14.75;13.70;;;;;;;26.56;30.99;99654.44;10590878;28;20074;-82
2023/07/04 13:43:52;;;;;;;15.55;14.55;;;;;;;26.67;30.61;99658.69;10612129;28;20560;-81
2023/07/04 13:48:57;;;;;;;15.48;14.23;;;;;;;26.62;31.30;99661.84;10608944;28;20046;-82
2023/07/04 13:54:00;;;;;;;15.93;14.73;;;;;;;26.95;32.20;99662.00;10585145;28;20054;-82
2023/07/04 13:59:03;;;;;;;13.75;12.73;;;;;;;26.52;30.93;99661.16;10600372;28;20048;-81
2023/07/04 14:04:04;;;;;;;15.18;14.18;;;;;;;26.26;31.60;99660.28;10581289;28;20115;-80
2023/07/04 14:09:09;;;;;;;15.43;14.30;;;;;;;26.32;32.41;99657.78;10588632;28;20051;-81
2023/07/04 14:14:11;;;;;;;15.35;14.35;;;;;;;26.78;30.63;99662.94;10568456;28;20050;-81
2023/07/04 14:19:32;;;;;;;15.95;14.88;;;;;;;26.87;30.04;99649.34;10570038;28;20550;-81
2023/07/04 14:24:37;;;;;;;16.63;15.20;;;;;;;27.18;31.61;99651.47;10564265;28;20131;-80
2023/07/04 14:29:39;;;;;;;15.73;14.30;;;;;;;27.05;32.87;99651.06;10587225;28;20039;-81
2023/07/04 14:34:40;;;;;;;17.20;15.98;;;;;;;25.97;33.16;99660.56;10590477;28;20036;-82
2023/07/04 14:39:42;;;;;;;15.90;14.82;;;;;;;26.01;32.50;99654.69;10583028;28;20114;-81
2023/07/04 14:44:45;;;;;;;14.65;13.73;;;;;;;26.13;32.67;99656.16;10594947;28;20075;-80
2023/07/04 14:49:47;;;;;;;15.93;14.82;;;;;;;26.51;32.96;99648.66;10577959;28;20168;-82
2023/07/04 14:54:49;;;;;;;15.27;14.05;;;;;;;26.79;33.01;99648.47;10582549;28;20062;-82
2023/07/04 14:59:51;;;;;;;15.13;13.98;;;;;;;26.47;32.85;99651.81;10609564;28;20043;-82
2023/07/04 15:04:53;;;;;;;14.80;13.40;;;;;;;27.08;32.34;99645.34;10626838;28;20066;-82
2023/07/04 15:09:55;;;;;;;14.15;13.15;;;;;;;27.46;31.96;99656.59;10609208;28;20048;-81
2023/07/04 15:14:57;;;;;;;14.63;13.40;;;;;;;27.21;32.59;99651.16;10624375;28;20436;-79
2023/07/04 15:19:58;;;;;;;14.02;12.90;;;;;;;26.74;32.19;99650.78;10625419;28;20073;-80
2023/07/04 15:25:00;;;;;;;13.75;12.73;;;;;;;27.11;30.66;99643.19;10612290;28;20040;-80
2023/07/04 15:30:02;;;;;;;13.65;12.68;;;;;;;27.57;30.54;99645.47;10621476;28;20048;-81
2023/07/04 15:35:04;;;;;;;13.13;12.13;;;;;;;27.59;31.04;99641.59;10570813;28;20047;-81
2023/07/04 15:40:07;;;;;;;12.95;12.07;;;;;;;27.03;32.06;99643.13;10600892;28;20099;-80
2023/07/04 15:45:09;;;;;;;12.32;11.52;;;;;;;26.78;31.98;99635.97;10602657;28;20066;-80
2023/07/04 15:50:10;;;;;;;12.50;11.63;;;;;;;26.74;32.55;99623.81;10609340;28;20047;-81
2023/07/04 15:55:12;;;;;;;11.88;10.93;;;;;;;26.55;33.55;99633.00;10623064;28;20012;-81
2023/07/04 16:00:15;;;;;;;12.38;11.48;;;;;;;26.52;33.18;99636.00;10611877;28;20044;-83
2023/07/04 16:05:17;;;;;;;12.68;11.77;;;;;;;27.14;29.77;99639.34;10622332;28;20040;-84
2023/07/04 16:10:19;;;;;;;13.15;12.25;;;;;;;26.19;31.48;99638.50;10590092;28;20074;-83
2023/07/04 16:15:21;;;;;;;12.32;11.45;;;;;;;26.19;32.28;99633.09;10587388;28;20039;-83
2023/07/04 16:20:22;;;;;;;12.85;11.95;;;;;;;26.27;30.87;99635.84;10602290;28;20059;-83
2023/07/04 16:25:27;;;;;;;11.93;10.93;;;;;;;26.75;31.16;99636.31;10599210;28;20044;-83
2023/07/04 16:30:29;;;;;;;12.68;11.65;;;;;;;26.17;31.53;99633.28;10605188;28;20054;-84
2023/07/04 16:35:32;;;;;;;13.77;12.77;;;;;;;26.20;32.21;99632.09;10607530;28;20039;-84
2023/07/04 16:40:35;;;;;;;12.82;11.90;;;;;;;25.67;32.02;99628.47;10587982;28;20055;-83
2023/07/04 16:45:36;;;;;;;13.18;12.10;;;;;;;25.66;31.87;99637.56;10603826;28;20408;-84
2023/07/04 16:50:39;;;;;;;14.30;13.30;;;;;;;25.68;33.10;99637.44;10596018;28;20044;-84
2023/07/04 16:55:41;;;;;;;12.73;11.93;;;;;;;25.40;34.27;99629.41;10593940;28;20079;-84
2023/07/04 17:00:43;;;;;;;12.45;11.57;;;;;;;25.30;33.43;99630.50;10601413;28;20103;-83
2023/07/04 17:05:45;;;;;;;13.65;12.55;;;;;;;25.37;31.81;99629.75;10584129;28;20035;-83
2023/07/04 17:10:49;;;;;;;12.20;11.40;;;;;;;25.16;33.49;99624.66;10589873;28;20047;-84
2023/07/04 17:15:51;;;;;;;12.27;11.27;;;;;;;24.96;33.58;99630.25;10580420;28;20412;-85
2023/07/04 17:20:54;;;;;;;12.13;11.15;;;;;;;24.77;33.76;99628.53;10591740;28;20039;-85
2023/07/04 17:25:56;;;;;;;13.13;12.18;;;;;;;24.67;34.42;99639.34;10567492;28;20054;-84
2023/07/04 17:31:00;;;;;;;11.88;10.98;;;;;;;24.46;34.86;99639.56;10609209;28;20062;-84
2023/07/04 17:36:07;;;;;;;12.48;11.48;;;;;;;24.67;34.98;99650.94;10609921;22;20054;-81
2023/07/04 17:41:14;;;;;;;11.95;11.15;;;;;;;24.30;35.99;99647.34;10546652;28;20048;-80
2023/07/04 17:46:16;;;;;;;12.57;11.52;;;;;;;24.10;37.16;99646.56;10561360;28;20036;-80
2023/07/04 17:51:20;;;;;;;13.27;11.52;;;;;;;23.99;37.06;99647.56;10542256;28;20067;-81
2023/07/04 17:56:26;;;;;;;11.80;11.00;;;;;;;23.89;37.28;99646.72;10540805;28;20040;-81
2023/07/04 18:01:28;;;;;;;11.63;10.63;;;;;;;23.93;37.77;99650.84;10541181;28;20080;-80
2023/07/04 18:06:30;;;;;;;12.23;10.82;;;;;;;23.67;38.39;99651.41;10541705;28;20044;-79
2023/07/04 18:11:32;;;;;;;11.60;10.70;;;;;;;23.61;38.70;99660.00;10540021;28;20039;-81
2023/07/04 18:16:34;;;;;;;11.32;10.52;;;;;;;23.43;39.52;99664.38;10544318;28;20047;-80
2023/07/04 18:21:35;;;;;;;12.40;11.50;;;;;;;23.63;38.41;99676.78;10559059;28;20091;-80
2023/07/04 18:26:38;;;;;;;11.73;10.93;;;;;;;23.59;38.13;99675.38;10558642;28;20409;-80
2023/07/04 18:31:40;;;;;;;11.95;11.15;;;;;;;23.19;39.85;99677.31;10559163;28;20573;-80
2023/07/04 18:36:42;;;;;;;12.52;11.52;;;;;;;22.87;40.60;99683.69;10570974;28;20043;-79
2023/07/04 18:41:44;;;;;;;12.60;11.50;;;;;;;22.75;40.25;99688.28;10628488;28;20043;-82
2023/07/04 18:46:46;;;;;;;11.63;10.60;;;;;;;22.92;40.26;99690.34;10580055;28;20550;-81
2023/07/04 18:51:48;;;;;;;12.60;11.50;;;;;;;22.82;40.88;99696.66;10600916;28;20046;-81
2023/07/04 18:56:50;;;;;;;11.82;10.82;;;;;;;22.65;41.73;99704.31;10582537;28;20045;-80
2023/07/04 19:01:54;;;;;;;13.38;12.48;;;;;;;22.45;42.21;99709.72;10565062;28;20089;-81
2023/07/04 19:06:56;;;;;;;12.43;11.45;;;;;;;22.16;42.76;99723.78;10583099;28;20549;-79
2023/07/04 19:11:57;;;;;;;13.48;12.38;;;;;;;21.93;43.42;99725.69;10600566;28;20071;-79
2023/07/04 19:16:59;;;;;;;12.23;11.32;;;;;;;21.82;44.84;99723.88;10599132;28;20055;-80
2023/07/04 19:22:07;;;;;;;12.52;11.50;;;;;;;21.63;45.63;99732.59;10599227;28;20044;-80
2023/07/04 19:27:14;;;;;;;13.30;12.25;;;;;;;21.28;46.54;99745.28;10597170;28;20051;-82
2023/07/04 19:32:15;;;;;;;12.48;11.57;;;;;;;21.07;47.32;99754.09;10581108;28;20035;-81
2023/07/04 19:37:17;;;;;;;12.77;11.77;;;;;;;20.90;47.46;99752.75;10597695;28;20488;-81
2023/07/04 19:42:20;;;;;;;12.68;11.68;;;;;;;20.82;47.53;99762.34;10597523;28;20400;-82
2023/07/04 19:47:26;;;;;;;12.38;11.48;;;;;;;20.62;47.83;99771.88;10581114;28;20417;-81
2023/07/04 19:52:28;;;;;;;13.10;12.20;;;;;;;20.40;48.43;99762.81;10599178;28;20492;-80
2023/07/04 19:57:30;;;;;;;13.30;12.30;;;;;;;20.24;49.03;99761.47;10562628;28;20052;-81
2023/07/04 20:02:31;;;;;;;12.85;11.52;;;;;;;20.28;49.23;99762.94;10596781;28;20040;-80
2023/07/04 20:07:33;;;;;;;13.75;12.75;;;;;;;20.21;49.60;99761.69;10595865;28;20052;-83
2023/07/04 20:12:35;;;;;;;13.77;12.05;;;;;;;19.91;50.88;99765.69;10595743;28;20035;-81
2023/07/04 20:17:37;;;;;;;12.52;11.63;;;;;;;19.71;51.13;99758.34;10559876;28;20154;-81
2023/07/04 20:22:40;;;;;;;13.15;12.15;;;;;;;19.71;51.32;99761.00;10578558;28;20126;-80
2023/07/04 20:27:42;;;;;;;13.70;12.60;;;;;;;19.70;51.02;99761.94;10579878;28;20040;-80
2023/07/04 20:32:43;;;;;;;14.13;12.77;;;;;;;19.52;51.81;99765.00;10579316;28;20044;-82
2023/07/04 20:37:45;;;;;;;13.45;12.35;;;;;;;19.47;51.77;99764.47;10597542;28;20044;-81
2023/07/04 20:42:48;;;;;;;13.55;12.52;;;;;;;19.30;53.03;99768.38;10597755;28;20143;-81
2023/07/04 20:47:53;;;;;;;12.85;11.80;;;;;;;19.00;53.98;99768.75;10578435;28;20381;-79
2023/07/04 20:52:55;;;;;;;14.10;13.10;;;;;;;18.93;54.28;99767.47;10588510;28;20074;-82
2023/07/04 20:57:56;;;;;;;13.25;12.25;;;;;;;18.86;54.89;99766.22;10585255;28;20052;-82
2023/07/04 21:02:58;;;;;;;15.13;13.80;;;;;;;18.72;55.96;99767.16;10604839;28;20043;-85
2023/07/04 21:08:00;;;;;;;13.63;12.63;;;;;;;18.89;55.42;99769.50;10605010;28;20075;-85
2023/07/04 21:13:05;;;;;;;14.52;13.43;;;;;;;19.16;54.58;99765.81;10608656;28;20509;-84
2023/07/04 21:18:07;;;;;;;13.52;12.52;;;;;;;18.98;55.53;99762.66;10607315;28;20043;-83
2023/07/04 21:23:09;;;;;;;13.57;12.43;;;;;;;18.60;56.93;99755.53;10609821;28;20048;-83
2023/07/04 21:28:10;;;;;;;12.55;11.65;;;;;;;18.55;57.77;99762.09;10592710;28;20416;-85
2023/07/04 21:33:12;;;;;;;13.77;12.65;;;;;;;18.13;59.20;99754.31;10590664;28;20145;-84
2023/07/04 21:38:14;;;;;;;12.82;11.93;;;;;;;18.13;59.87;99758.78;10607482;28;20044;-85
2023/07/04 21:43:15;;;;;;;13.60;12.52;;;;;;;18.08;60.47;99772.38;10574493;28;20044;-84
2023/07/04 21:48:17;;;;;;;15.05;13.85;;;;;;;17.90;62.84;99781.59;10575364;28;20050;-84
2023/07/04 21:53:19;;;;;;;15.10;13.95;;;;;;;17.97;62.53;99774.03;10610535;28;20039;-84
2023/07/04 21:58:22;;;;;;;14.32;13.23;;;;;;;17.81;63.67;99782.19;10581548;28;20043;-84
2023/07/04 22:03:26;;;;;;;15.82;14.63;;;;;;;17.64;64.38;99789.41;10587498;28;20044;-85
2023/07/04 22:08:29;;;;;;;14.02;12.85;;;;;;;17.63;63.60;99784.22;10600647;28;20070;-84
2023/07/04 22:13:33;;;;;;;15.52;14.23;;;;;;;17.59;63.18;99780.91;10587700;28;20044;-84
2023/07/04 22:18:36;;;;;;;13.98;12.98;;;;;;;17.62;64.09;99783.38;10600263;28;20094;-85
2023/07/04 22:23:40;;;;;;;14.43;13.30;;;;;;;17.33;65.15;99784.38;10588567;28;20028;-82
2023/07/04 22:28:43;;;;;;;15.70;14.18;;;;;;;17.34;64.89;99778.94;10592183;28;20044;-83
2023/07/04 22:33:47;;;;;;;14.75;13.63;;;;;;;16.92;66.84;99785.19;10620917;28;20044;-84
2023/07/04 22:38:49;;;;;;;15.43;14.15;;;;;;;16.65;68.08;99775.28;10601548;28;20047;-85
2023/07/04 22:43:52;;;;;;;15.13;13.77;;;;;;;16.81;68.23;99779.66;10582638;28;20500;-84
2023/07/04 22:48:54;;;;;;;14.60;13.50;;;;;;;16.57;68.29;99772.22;10589495;28;20047;-86
2023/07/04 22:53:55;;;;;;;15.80;14.63;;;;;;;16.56;68.16;99765.22;10598017;28;20416;-85
2023/07/04 22:58:57;;;;;;;16.73;15.45;;;;;;;16.92;66.70;99777.22;10617359;28;20050;-85
2023/07/04 23:03:59;;;;;;;14.95;13.85;;;;;;;16.62;68.35;99772.78;10599346;28;20472;-85
2023/07/04 23:09:01;;;;;;;15.77;14.68;;;;;;;16.48;69.40;99766.63;10598483;28;20497;-85
2023/07/04 23:14:02;;;;;;;15.98;14.88;;;;;;;16.59;69.67;99762.34;10596819;28;20071;-85
2023/07/04 23:19:06;;;;;;;16.45;14.70;;;;;;;16.57;70.21;99758.97;10595627;28;20412;-84
2023/07/04 23:24:08;;;;;;;15.82;14.60;;;;;;;16.38;71.11;99755.72;10614570;28;20042;-85